Time;durP1;ratioP1;P1;durP2;ratioP2;P2;SDS_P1;SDS_P2;PMS_P1;PMS_P2;Temp;Humidity;BMP_temperature;BMP_pressure;BME280_temperature;BME280_humidity;BME280_pressure;Samples;Min_cycle;Max_cycle;Signal;HPM_P1;HPM_P2
2023/07/10 00:00:06;;;;;;;33.80;13.23;;;;;;;;;;4888744;29;20232;-83
2023/07/10 00:02:32;;;;;;;39.80;13.10;;;;;;;;;;4886246;29;20149;-82
2023/07/10 00:05:00;;;;;;;26.40;12.02;;;;;;;;;;4885215;29;20052;-82
2023/07/10 00:07:26;;;;;;;31.77;11.80;;;;;;;;;;4885735;29;20775;-82
2023/07/10 00:09:52;;;;;;;32.88;11.95;;;;;;;;;;4873100;29;20653;-82
2023/07/10 00:12:19;;;;;;;33.83;11.88;;;;;;;;;;4886149;29;20080;-83
2023/07/10 00:14:45;;;;;;;30.63;11.75;;;;;;;;;;4893114;29;20040;-83
2023/07/10 00:17:11;;;;;;;27.42;11.02;;;;;;;;;;4885990;29;20048;-83
2023/07/10 00:19:37;;;;;;;34.35;11.13;;;;;;;;;;4872239;29;20131;-83
2023/07/10 00:22:04;;;;;;;31.05;11.88;;;;;;;;;;4859251;29;20048;-83
2023/07/10 00:24:30;;;;;;;32.65;11.43;;;;;;;;;;4870258;29;20592;-83
2023/07/10 00:26:56;;;;;;;33.03;12.35;;;;;;;;;;4885728;29;20776;-83
2023/07/10 00:29:24;;;;;;;27.55;11.95;;;;;;;;;;4888398;29;20068;-83
2023/07/10 00:31:50;;;;;;;27.88;11.18;;;;;;;;;;4883892;29;20044;-82
2023/07/10 00:34:16;;;;;;;29.10;10.02;;;;;;;;;;4887506;29;20586;-82
2023/07/10 00:36:44;;;;;;;31.67;10.98;;;;;;;;;;4885040;29;20100;-82
2023/07/10 00:39:19;;;;;;;25.08;11.95;;;;;;;;;;4885341;29;20063;-82
2023/07/10 00:41:46;;;;;;;32.55;12.05;;;;;;;;;;4883011;29;20185;-83
2023/07/10 00:44:13;;;;;;;23.60;11.38;;;;;;;;;;4885880;29;20047;-81
2023/07/10 00:46:42;;;;;;;32.50;12.52;;;;;;;;;;4873380;29;20048;-82
2023/07/10 00:49:08;;;;;;;27.08;12.30;;;;;;;;;;4885180;29;20063;-82
2023/07/10 00:51:47;;;;;;;29.75;13.32;;;;;;;;;;4883400;29;20530;-82
2023/07/10 00:54:22;;;;;;;35.08;13.02;;;;;;;;;;4889622;29;20417;-82
2023/07/10 00:56:49;;;;;;;29.27;12.32;;;;;;;;;;4879342;29;20044;-82
2023/07/10 00:59:35;;;;;;;34.58;12.73;;;;;;;;;;4856506;29;20049;-82
2023/07/10 01:02:07;;;;;;;34.72;12.27;;;;;;;;;;4888580;29;20433;-82
2023/07/10 01:04:34;;;;;;;25.67;12.18;;;;;;;;;;4881923;29;20607;-82
2023/07/10 01:07:00;;;;;;;29.90;12.38;;;;;;;;;;4890818;29;20048;-82
2023/07/10 01:09:27;;;;;;;40.33;13.73;;;;;;;;;;4900180;29;20771;-83
2023/07/10 01:11:53;;;;;;;37.88;13.98;;;;;;;;;;4894852;29;20051;-83
2023/07/10 01:14:20;;;;;;;37.10;14.68;;;;;;;;;;4905653;29;20048;-82
2023/07/10 01:16:47;;;;;;;43.08;15.80;;;;;;;;;;4903670;29;20036;-83
2023/07/10 01:19:24;;;;;;;32.10;15.32;;;;;;;;;;4901984;29;20071;-82
2023/07/10 01:21:50;;;;;;;38.13;15.98;;;;;;;;;;4899026;29;20064;-82
2023/07/10 01:24:17;;;;;;;38.15;17.13;;;;;;;;;;4879412;29;20084;-81
2023/07/10 01:26:43;;;;;;;34.53;16.98;;;;;;;;;;4893424;29;20174;-82
2023/07/10 01:29:18;;;;;;;42.50;17.25;;;;;;;;;;4896277;29;20099;-82
2023/07/10 01:31:44;;;;;;;42.25;18.42;;;;;;;;;;4892611;29;20182;-83
2023/07/10 01:34:10;;;;;;;45.88;20.70;;;;;;;;;;4875096;29;20051;-83
2023/07/10 01:36:38;;;;;;;41.22;20.83;;;;;;;;;;4897188;29;20899;-83
2023/07/10 01:39:10;;;;;;;45.65;21.55;;;;;;;;;;4879164;29;20048;-82
2023/07/10 01:41:39;;;;;;;45.45;21.48;;;;;;;;;;4881324;29;20099;-82
2023/07/10 01:44:25;;;;;;;53.35;26.38;;;;;;;;;;4889643;29;20568;-82
2023/07/10 01:46:52;;;;;;;56.05;25.33;;;;;;;;;;4878558;29;20513;-82
2023/07/10 01:49:19;;;;;;;64.53;27.73;;;;;;;;;;4889098;29;20511;-82
2023/07/10 01:51:45;;;;;;;47.55;26.42;;;;;;;;;;4891336;29;20070;-82
2023/07/10 01:54:14;;;;;;;53.63;27.73;;;;;;;;;;4889942;29;20041;-83
2023/07/10 01:56:40;;;;;;;51.75;27.90;;;;;;;;;;4891848;29;20043;-82
2023/07/10 01:59:06;;;;;;;40.58;25.83;;;;;;;;;;4904950;29;20079;-82
2023/07/10 02:01:33;;;;;;;42.15;25.60;;;;;;;;;;4882605;29;20414;-81
2023/07/10 02:03:59;;;;;;;45.38;24.90;;;;;;;;;;4871823;29;20405;-82
2023/07/10 02:06:28;;;;;;;48.42;24.38;;;;;;;;;;4889619;29;20047;-82
2023/07/10 02:08:54;;;;;;;46.60;23.40;;;;;;;;;;4873243;29;20140;-82
2023/07/10 02:11:20;;;;;;;40.92;21.83;;;;;;;;;;4890368;29;20040;-81
2023/07/10 02:13:46;;;;;;;42.70;23.38;;;;;;;;;;4889057;29;20056;-82
2023/07/10 02:16:13;;;;;;;35.65;21.65;;;;;;;;;;4887938;29;20096;-82
2023/07/10 02:18:40;;;;;;;36.42;21.90;;;;;;;;;;4888980;29;20052;-81
2023/07/10 02:21:06;;;;;;;37.90;20.80;;;;;;;;;;4876530;29;20052;-82
2023/07/10 02:23:34;;;;;;;37.78;22.10;;;;;;;;;;4894604;29;20051;-82
2023/07/10 02:26:00;;;;;;;40.53;21.17;;;;;;;;;;4898449;29;20080;-82
2023/07/10 02:28:27;;;;;;;38.35;21.88;;;;;;;;;;4882235;29;20096;-83
2023/07/10 02:30:53;;;;;;;36.40;21.27;;;;;;;;;;4900372;29;20047;-81
2023/07/10 02:33:19;;;;;;;33.67;20.83;;;;;;;;;;4901686;29;20047;-82
2023/07/10 02:35:49;;;;;;;43.13;22.25;;;;;;;;;;4887358;29;20052;-82
2023/07/10 02:38:16;;;;;;;45.13;22.40;;;;;;;;;;4907083;29;20144;-82
2023/07/10 02:40:45;;;;;;;43.47;21.35;;;;;;;;;;4907386;29;20051;-81
2023/07/10 02:43:11;;;;;;;41.22;22.75;;;;;;;;;;4903098;29;20059;-82
2023/07/10 02:45:37;;;;;;;35.17;21.30;;;;;;;;;;4884334;29;20095;-82
2023/07/10 02:48:03;;;;;;;36.00;20.38;;;;;;;;;;4891202;29;20059;-82
2023/07/10 02:50:29;;;;;;;34.25;20.58;;;;;;;;;;4878126;29;21956;-82
2023/07/10 02:52:56;;;;;;;31.48;19.48;;;;;;;;;;4896491;29;20088;-82
2023/07/10 02:55:22;;;;;;;38.40;20.38;;;;;;;;;;4888153;29;20166;-82
2023/07/10 02:57:48;;;;;;;33.97;20.58;;;;;;;;;;4892100;29;20231;-82
2023/07/10 03:00:14;;;;;;;35.97;21.23;;;;;;;;;;4888220;29;20131;-82
2023/07/10 03:02:41;;;;;;;34.45;19.02;;;;;;;;;;4893074;29;20047;-83
2023/07/10 03:05:07;;;;;;;31.58;19.73;;;;;;;;;;4870204;29;20138;-82
2023/07/10 03:07:34;;;;;;;28.85;20.17;;;;;;;;;;4892430;29;20055;-82
2023/07/10 03:10:00;;;;;;;40.03;20.10;;;;;;;;;;4887093;29;20078;-82
2023/07/10 03:12:26;;;;;;;33.67;19.45;;;;;;;;;;4869289;29;21117;-82
2023/07/10 03:14:52;;;;;;;36.47;20.23;;;;;;;;;;4889103;29;20051;-83
2023/07/10 03:17:19;;;;;;;37.22;21.15;;;;;;;;;;4894808;29;20082;-82
2023/07/10 03:19:45;;;;;;;33.03;19.58;;;;;;;;;;4857329;29;20045;-82
2023/07/10 03:22:11;;;;;;;24.95;18.85;;;;;;;;;;4884406;29;20059;-82
2023/07/10 03:24:38;;;;;;;38.78;20.85;;;;;;;;;;4873754;29;20055;-81
2023/07/10 03:27:04;;;;;;;33.50;19.55;;;;;;;;;;4898691;29;20116;-80
2023/07/10 03:29:30;;;;;;;31.40;18.75;;;;;;;;;;4880146;29;20048;-80
2023/07/10 03:31:56;;;;;;;36.03;19.48;;;;;;;;;;4885506;29;20051;-80
2023/07/10 03:34:22;;;;;;;27.52;18.95;;;;;;;;;;4889390;29;20046;-80
2023/07/10 03:36:48;;;;;;;30.58;17.17;;;;;;;;;;4887705;29;20060;-80
2023/07/10 03:39:14;;;;;;;26.92;15.73;;;;;;;;;;4914281;29;20084;-80
2023/07/10 03:41:41;;;;;;;28.20;16.40;;;;;;;;;;4893991;29;21840;-79
2023/07/10 03:44:10;;;;;;;28.42;16.08;;;;;;;;;;4893704;29;20179;-79
2023/07/10 03:46:36;;;;;;;25.00;14.85;;;;;;;;;;4893349;29;20072;-79
2023/07/10 03:49:03;;;;;;;26.17;15.27;;;;;;;;;;4883117;29;20052;-79
2023/07/10 03:51:29;;;;;;;25.00;14.48;;;;;;;;;;4892651;29;20051;-79
2023/07/10 03:53:55;;;;;;;23.63;13.35;;;;;;;;;;4887507;29;20405;-80
2023/07/10 03:56:21;;;;;;;22.55;13.90;;;;;;;;;;4877532;29;20036;-78
2023/07/10 03:58:47;;;;;;;26.98;13.73;;;;;;;;;;4885405;29;20079;-79
2023/07/10 04:01:14;;;;;;;24.95;14.65;;;;;;;;;;4868526;29;20048;-80
2023/07/10 04:03:40;;;;;;;30.40;14.30;;;;;;;;;;4865283;29;20400;-80
2023/07/10 04:06:07;;;;;;;21.38;12.40;;;;;;;;;;4867077;29;20048;-78
2023/07/10 04:08:35;;;;;;;18.52;11.38;;;;;;;;;;4875805;29;20143;-78
2023/07/10 04:11:03;;;;;;;21.80;11.13;;;;;;;;;;4880908;29;20053;-79
2023/07/10 04:13:29;;;;;;;15.82;9.23;;;;;;;;;;4866716;29;20048;-79
2023/07/10 04:15:55;;;;;;;13.95;8.13;;;;;;;;;;4849184;29;20044;-78
2023/07/10 04:18:21;;;;;;;16.52;7.90;;;;;;;;;;4864540;29;20122;-79
2023/07/10 04:20:49;;;;;;;9.25;6.47;;;;;;;;;;4879944;29;20397;-79
2023/07/10 04:23:18;;;;;;;13.05;6.65;;;;;;;;;;4863100;29;20502;-78
2023/07/10 04:25:45;;;;;;;13.80;5.75;;;;;;;;;;4881926;29;20207;-79
2023/07/10 04:28:11;;;;;;;12.23;5.93;;;;;;;;;;4863678;29;20049;-79
2023/07/10 04:30:37;;;;;;;12.70;6.45;;;;;;;;;;4864268;29;20087;-79
2023/07/10 04:33:03;;;;;;;10.68;5.15;;;;;;;;;;4883398;29;20092;-80
2023/07/10 04:35:29;;;;;;;10.15;5.40;;;;;;;;;;4880774;29;20095;-80
2023/07/10 04:37:55;;;;;;;14.05;5.57;;;;;;;;;;4854577;29;20080;-82
2023/07/10 04:40:21;;;;;;;12.85;5.05;;;;;;;;;;4879224;29;20052;-82
2023/07/10 04:42:50;;;;;;;14.32;5.50;;;;;;;;;;4882630;29;20106;-80
2023/07/10 04:45:16;;;;;;;13.07;5.80;;;;;;;;;;4897514;29;20112;-81
2023/07/10 04:47:43;;;;;;;13.18;4.97;;;;;;;;;;4873423;29;20394;-81
2023/07/10 04:50:09;;;;;;;12.73;4.47;;;;;;;;;;4864868;29;20048;-78
2023/07/10 04:52:35;;;;;;;10.73;4.18;;;;;;;;;;4868809;29;20044;-79
2023/07/10 04:55:02;;;;;;;15.25;4.65;;;;;;;;;;4881045;29;20054;-80
2023/07/10 04:57:29;;;;;;;12.13;5.25;;;;;;;;;;4864436;29;20059;-79
2023/07/10 04:59:55;;;;;;;7.40;4.07;;;;;;;;;;4863003;29;20047;-80
2023/07/10 05:02:21;;;;;;;12.63;4.35;;;;;;;;;;4882975;29;20056;-79
2023/07/10 05:04:47;;;;;;;6.60;4.07;;;;;;;;;;4872882;29;20052;-79
2023/07/10 05:07:13;;;;;;;8.18;4.10;;;;;;;;;;4882434;29;20055;-79
2023/07/10 05:09:39;;;;;;;11.57;3.92;;;;;;;;;;4873916;29;20508;-79
2023/07/10 05:12:05;;;;;;;6.93;4.20;;;;;;;;;;4901032;29;20047;-79
2023/07/10 05:14:31;;;;;;;9.13;4.88;;;;;;;;;;4893301;29;20072;-79
2023/07/10 05:16:58;;;;;;;10.40;5.13;;;;;;;;;;4871262;29;20547;-79
2023/07/10 05:19:24;;;;;;;8.90;5.22;;;;;;;;;;4867383;29;20103;-78
2023/07/10 05:21:50;;;;;;;13.07;5.40;;;;;;;;;;4890903;29;22037;-80
2023/07/10 05:24:16;;;;;;;9.35;6.13;;;;;;;;;;4875303;29;20044;-79
2023/07/10 05:26:42;;;;;;;10.52;6.50;;;;;;;;;;4888027;29;20037;-79
2023/07/10 05:29:08;;;;;;;16.88;7.13;;;;;;;;;;4889209;29;20092;-80
2023/07/10 05:31:35;;;;;;;13.88;6.22;;;;;;;;;;4902812;29;20232;-78
2023/07/10 05:34:01;;;;;;;10.52;6.20;;;;;;;;;;4886941;29;20044;-79
2023/07/10 05:36:27;;;;;;;13.35;7.60;;;;;;;;;;4896086;29;20524;-79
2023/07/10 05:38:53;;;;;;;10.52;6.63;;;;;;;;;;4892132;29;20123;-81
2023/07/10 05:41:20;;;;;;;11.38;7.10;;;;;;;;;;4883476;29;20055;-81
2023/07/10 05:43:46;;;;;;;17.40;7.38;;;;;;;;;;4891802;29;20111;-80
2023/07/10 05:46:12;;;;;;;14.80;8.52;;;;;;;;;;4893498;29;20083;-81
2023/07/10 05:48:38;;;;;;;13.30;8.40;;;;;;;;;;4893874;29;20052;-80
2023/07/10 05:51:05;;;;;;;11.07;7.32;;;;;;;;;;4889087;29;20039;-81
2023/07/10 05:53:33;;;;;;;12.20;7.80;;;;;;;;;;4880706;29;20400;-80
2023/07/10 05:56:00;;;;;;;12.25;6.72;;;;;;;;;;4884552;29;20078;-81
2023/07/10 05:58:27;;;;;;;9.88;6.18;;;;;;;;;;4893922;29;20040;-81
2023/07/10 06:00:55;;;;;;;9.52;6.22;;;;;;;;;;4899008;29;20135;-81
2023/07/10 06:03:22;;;;;;;9.20;6.47;;;;;;;;;;4897112;29;20128;-81
2023/07/10 06:05:59;;;;;;;15.88;6.75;;;;;;;;;;4886301;29;20042;-81
2023/07/10 06:08:26;;;;;;;14.55;6.30;;;;;;;;;;4901415;29;20460;-81
2023/07/10 06:10:52;;;;;;;12.02;6.72;;;;;;;;;;4887998;29;20043;-80
2023/07/10 06:13:18;;;;;;;9.23;6.13;;;;;;;;;;4899774;29;20048;-81
2023/07/10 06:15:46;;;;;;;11.88;5.63;;;;;;;;;;4889348;29;20095;-81
2023/07/10 06:18:12;;;;;;;12.43;6.05;;;;;;;;;;4900818;29;20559;-81
2023/07/10 06:20:38;;;;;;;12.57;5.68;;;;;;;;;;4899939;29;20051;-81
2023/07/10 06:23:04;;;;;;;9.75;4.90;;;;;;;;;;4884207;29;20111;-81
2023/07/10 06:25:30;;;;;;;11.90;5.00;;;;;;;;;;4884508;29;20432;-80
2023/07/10 06:27:56;;;;;;;11.27;4.82;;;;;;;;;;4885442;29;20685;-81
2023/07/10 06:30:23;;;;;;;9.05;4.22;;;;;;;;;;4890879;29;20071;-81
2023/07/10 06:32:49;;;;;;;6.80;4.40;;;;;;;;;;4890995;29;20044;-81
2023/07/10 06:35:15;;;;;;;8.98;4.85;;;;;;;;;;4899173;29;20043;-81
2023/07/10 06:37:41;;;;;;;8.43;4.32;;;;;;;;;;4897633;29;20120;-82
2023/07/10 06:40:09;;;;;;;9.65;4.43;;;;;;;;;;4896788;29;20169;-82
2023/07/10 06:42:35;;;;;;;7.45;4.35;;;;;;;;;;4883657;29;20116;-81
2023/07/10 06:45:01;;;;;;;8.05;4.25;;;;;;;;;;4884225;29;20176;-81
2023/07/10 06:47:27;;;;;;;10.60;4.57;;;;;;;;;;4899183;29;20084;-81
2023/07/10 06:49:54;;;;;;;10.23;4.53;;;;;;;;;;4900272;29;20044;-81
2023/07/10 06:52:20;;;;;;;8.68;4.20;;;;;;;;;;4884214;29;20044;-81
2023/07/10 06:54:46;;;;;;;8.13;4.20;;;;;;;;;;4886397;29;20126;-81
2023/07/10 06:57:12;;;;;;;7.88;4.20;;;;;;;;;;4899506;29;20051;-81
2023/07/10 06:59:38;;;;;;;8.27;4.88;;;;;;;;;;4900428;29;20047;-81
2023/07/10 07:02:05;;;;;;;9.77;4.32;;;;;;;;;;4896331;29;20095;-81
2023/07/10 07:04:31;;;;;;;10.32;4.38;;;;;;;;;;4894980;29;20058;-81
2023/07/10 07:06:58;;;;;;;6.13;3.35;;;;;;;;;;4889151;29;20063;-81
2023/07/10 07:09:24;;;;;;;9.75;3.78;;;;;;;;;;4880884;29;20064;-80
2023/07/10 07:11:50;;;;;;;11.95;4.35;;;;;;;;;;4877148;29;20047;-81
2023/07/10 07:14:16;;;;;;;9.27;4.78;;;;;;;;;;4912335;29;20168;-81
2023/07/10 07:16:42;;;;;;;10.95;3.97;;;;;;;;;;4887786;29;20041;-81
2023/07/10 07:19:08;;;;;;;10.13;4.15;;;;;;;;;;4906355;29;20036;-81
2023/07/10 07:21:34;;;;;;;14.50;3.50;;;;;;;;;;4877288;29;20114;-81
2023/07/10 07:24:00;;;;;;;8.98;4.00;;;;;;;;;;4904770;29;20074;-81
2023/07/10 07:26:26;;;;;;;10.27;4.30;;;;;;;;;;4910512;29;20051;-81
2023/07/10 07:28:52;;;;;;;12.43;4.20;;;;;;;;;;4902690;29;20051;-82
2023/07/10 07:31:19;;;;;;;11.73;4.15;;;;;;;;;;4901577;29;20562;-82
2023/07/10 07:33:45;;;;;;;13.50;4.28;;;;;;;;;;4912574;29;20493;-82
2023/07/10 07:36:11;;;;;;;11.27;5.03;;;;;;;;;;4912589;29;20047;-81
2023/07/10 07:38:37;;;;;;;8.10;3.67;;;;;;;;;;4889147;29;20051;-81
2023/07/10 07:41:05;;;;;;;9.85;3.83;;;;;;;;;;4921567;29;20050;-81
2023/07/10 07:43:31;;;;;;;9.93;4.07;;;;;;;;;;4914850;29;20313;-82
2023/07/10 07:45:57;;;;;;;11.60;4.05;;;;;;;;;;4918495;29;20044;-83
2023/07/10 07:48:24;;;;;;;8.48;3.17;;;;;;;;;;4918526;29;20082;-82
2023/07/10 07:50:57;;;;;;;12.93;3.70;;;;;;;;;;4883858;29;20130;-82
2023/07/10 07:53:23;;;;;;;10.15;3.35;;;;;;;;;;4899453;29;20050;-81
2023/07/10 07:55:49;;;;;;;12.68;3.53;;;;;;;;;;4900467;29;20499;-82
2023/07/10 07:58:15;;;;;;;9.05;3.47;;;;;;;;;;4901090;29;21916;-82
2023/07/10 08:00:44;;;;;;;7.07;3.28;;;;;;;;;;4918583;29;20181;-81
2023/07/10 08:03:10;;;;;;;10.60;3.33;;;;;;;;;;4885815;29;20039;-82
2023/07/10 08:05:37;;;;;;;12.32;3.53;;;;;;;;;;4916723;29;20511;-82
2023/07/10 08:08:07;;;;;;;7.88;3.00;;;;;;;;;;4897338;29;20044;-82
2023/07/10 08:10:34;;;;;;;7.75;2.88;;;;;;;;;;4884955;29;20092;-82
2023/07/10 08:13:01;;;;;;;9.98;3.28;;;;;;;;;;4910478;29;20508;-82
2023/07/10 08:15:27;;;;;;;9.93;2.88;;;;;;;;;;4915938;29;20399;-82
2023/07/10 08:17:54;;;;;;;10.95;3.28;;;;;;;;;;4898393;29;20520;-82
2023/07/10 08:20:20;;;;;;;8.00;3.20;;;;;;;;;;4917144;29;20519;-84
2023/07/10 08:22:46;;;;;;;8.18;3.42;;;;;;;;;;4899386;29;20070;-83
2023/07/10 08:25:12;;;;;;;9.75;2.83;;;;;;;;;;4886866;29;20039;-83
2023/07/10 08:27:40;;;;;;;10.75;3.55;;;;;;;;;;4907811;29;20123;-83
2023/07/10 08:30:07;;;;;;;13.75;3.92;;;;;;;;;;4889837;29;20066;-83
2023/07/10 08:32:33;;;;;;;9.48;2.92;;;;;;;;;;4892992;29;20067;-84
2023/07/10 08:35:00;;;;;;;7.20;2.95;;;;;;;;;;4893457;29;20063;-84
2023/07/10 08:37:26;;;;;;;11.07;2.88;;;;;;;;;;4898542;29;20055;-83
2023/07/10 08:39:56;;;;;;;9.82;3.22;;;;;;;;;;4906197;29;20051;-83
2023/07/10 08:42:23;;;;;;;10.75;3.53;;;;;;;;;;4899573;29;20039;-82
2023/07/10 08:44:50;;;;;;;9.20;3.08;;;;;;;;;;4888942;29;20134;-83
2023/07/10 08:47:23;;;;;;;11.60;3.25;;;;;;;;;;4903495;29;20044;-83
2023/07/10 08:49:56;;;;;;;12.25;3.08;;;;;;;;;;4891260;29;20047;-83
2023/07/10 08:52:32;;;;;;;14.20;3.50;;;;;;;;;;4920226;29;20488;-83
2023/07/10 08:54:58;;;;;;;9.30;3.00;;;;;;;;;;4895658;29;20059;-83
2023/07/10 08:57:32;;;;;;;9.20;2.50;;;;;;;;;;4893430;29;20039;-83
2023/07/10 09:00:12;;;;;;;7.15;2.60;;;;;;;;;;4891080;29;20044;-82
2023/07/10 09:02:44;;;;;;;9.23;2.50;;;;;;;;;;4893813;29;20095;-83
2023/07/10 09:05:17;;;;;;;8.93;2.38;;;;;;;;;;4901813;29;20070;-84
2023/07/10 09:07:44;;;;;;;7.22;3.08;;;;;;;;;;4903373;29;20118;-82
2023/07/10 09:10:17;;;;;;;11.30;3.30;;;;;;;;;;4901663;29;20044;-83
2023/07/10 09:12:45;;;;;;;12.27;2.40;;;;;;;;;;4897435;29;20049;-83
2023/07/10 09:15:13;;;;;;;10.23;2.80;;;;;;;;;;4884302;29;20055;-83
2023/07/10 09:17:45;;;;;;;8.30;2.70;;;;;;;;;;4898953;29;20101;-83
2023/07/10 09:20:11;;;;;;;14.63;3.47;;;;;;;;;;4889418;29;20134;-83
2023/07/10 09:22:40;;;;;;;13.10;3.03;;;;;;;;;;4901253;29;20314;-83
2023/07/10 09:25:13;;;;;;;6.88;2.92;;;;;;;;;;4900895;29;20040;-83
2023/07/10 09:27:43;;;;;;;9.20;3.17;;;;;;;;;;4900135;29;20055;-84
2023/07/10 09:30:29;;;;;;;21.38;3.53;;;;;;;;;;4883443;29;20044;-84
2023/07/10 09:33:06;;;;;;;6.18;2.28;;;;;;;;;;4884959;29;20401;-82
2023/07/10 09:35:34;;;;;;;10.70;3.05;;;;;;;;;;4900640;29;20684;-83
2023/07/10 09:38:01;;;;;;;7.15;2.10;;;;;;;;;;4916723;29;20155;-83
2023/07/10 09:40:44;;;;;;;7.82;3.17;;;;;;;;;;4891092;29;20056;-82
2023/07/10 09:43:13;;;;;;;9.75;3.10;;;;;;;;;;4896496;29;20459;-82
2023/07/10 09:45:42;;;;;;;8.30;3.10;;;;;;;;;;4892861;29;20051;-83
2023/07/10 09:48:13;;;;;;;9.15;2.72;;;;;;;;;;4902465;29;20050;-83
2023/07/10 09:50:39;;;;;;;6.18;2.70;;;;;;;;;;4903811;29;21126;-83
2023/07/10 09:53:22;;;;;;;8.20;2.40;;;;;;;;;;4903616;29;20068;-83
2023/07/10 09:55:48;;;;;;;8.90;2.63;;;;;;;;;;4908695;29;20075;-82
2023/07/10 09:58:14;;;;;;;7.13;2.20;;;;;;;;;;4906954;29;20036;-83
2023/07/10 10:00:43;;;;;;;8.30;2.40;;;;;;;;;;4921657;29;20039;-83
2023/07/10 10:03:14;;;;;;;6.88;2.30;;;;;;;;;;4892341;29;20048;-82
2023/07/10 10:05:41;;;;;;;13.07;3.03;;;;;;;;;;4905885;29;20040;-82
2023/07/10 10:08:20;;;;;;;5.00;2.03;;;;;;;;;;4904020;29;20465;-83
2023/07/10 10:10:59;;;;;;;9.15;2.58;;;;;;;;;;4888424;29;20064;-82
2023/07/10 10:13:27;;;;;;;9.98;2.88;;;;;;;;;;4893285;29;20055;-82
2023/07/10 10:15:53;;;;;;;9.57;2.95;;;;;;;;;;4904660;29;20897;-82
2023/07/10 10:18:29;;;;;;;6.60;2.53;;;;;;;;;;4904535;29;20669;-82
2023/07/10 10:20:55;;;;;;;8.10;2.50;;;;;;;;;;4907790;29;20043;-83
2023/07/10 10:23:32;;;;;;;8.10;2.33;;;;;;;;;;4890125;29;20077;-83
2023/07/10 10:26:17;;;;;;;7.72;2.15;;;;;;;;;;4874518;29;20054;-79
2023/07/10 10:29:02;;;;;;;9.02;2.58;;;;;;;;;;4907373;29;20225;-79
2023/07/10 10:31:32;;;;;;;7.32;2.28;;;;;;;;;;4882781;29;20059;-79
2023/07/10 10:33:58;;;;;;;11.05;2.55;;;;;;;;;;4891468;29;20090;-79
2023/07/10 10:36:49;;;;;;;8.25;2.40;;;;;;;;;;4889594;29;20082;-80
2023/07/10 10:39:21;;;;;;;12.85;2.38;;;;;;;;;;4889952;29;20304;-80
2023/07/10 10:42:01;;;;;;;8.63;2.70;;;;;;;;;;4890686;29;20191;-80
2023/07/10 10:44:27;;;;;;;6.43;2.10;;;;;;;;;;4890158;29;20044;-79
2023/07/10 10:46:59;;;;;;;10.32;2.40;;;;;;;;;;4887891;29;20047;-78
2023/07/10 10:49:37;;;;;;;8.52;2.25;;;;;;;;;;4905847;29;20062;-77
2023/07/10 10:52:08;;;;;;;13.00;2.72;;;;;;;;;;4906269;29;20083;-79
2023/07/10 10:54:34;;;;;;;11.85;3.03;;;;;;;;;;4892394;29;20043;-80
2023/07/10 10:57:03;;;;;;;10.95;2.92;;;;;;;;;;4906903;29;20043;-79
2023/07/10 10:59:32;;;;;;;13.63;3.40;;;;;;;;;;4907360;29;20167;-80
2023/07/10 11:02:04;;;;;;;12.57;3.45;;;;;;;;;;4873159;29;20054;-80
2023/07/10 11:04:31;;;;;;;10.85;3.08;;;;;;;;;;4890831;29;20078;-80
2023/07/10 11:07:14;;;;;;;13.55;3.63;;;;;;;;;;4881727;29;20167;-79
2023/07/10 11:09:43;;;;;;;15.88;4.20;;;;;;;;;;4905722;29;22096;-80
2023/07/10 11:12:21;;;;;;;11.77;3.40;;;;;;;;;;4882104;29;20445;-80
2023/07/10 11:14:48;;;;;;;11.45;3.70;;;;;;;;;;4889809;29;20047;-80
2023/07/10 11:17:14;;;;;;;9.60;3.03;;;;;;;;;;4891299;29;20106;-79
2023/07/10 11:19:41;;;;;;;12.40;2.78;;;;;;;;;;4904367;29;20743;-79
2023/07/10 11:22:31;;;;;;;10.40;2.55;;;;;;;;;;4890452;29;20051;-80
2023/07/10 11:24:58;;;;;;;10.70;2.72;;;;;;;;;;4882018;29;20583;-79
2023/07/10 11:27:31;;;;;;;15.48;3.30;;;;;;;;;;4878648;29;20059;-79
2023/07/10 11:29:58;;;;;;;10.80;2.88;;;;;;;;;;4884775;29;20044;-80
2023/07/10 11:32:26;;;;;;;13.20;2.80;;;;;;;;;;4893192;29;20127;-80
2023/07/10 11:35:05;;;;;;;11.20;3.20;;;;;;;;;;4888733;29;20240;-81
2023/07/10 11:37:49;;;;;;;13.55;3.42;;;;;;;;;;4917192;29;20078;-79
2023/07/10 11:40:28;;;;;;;12.60;2.80;;;;;;;;;;4931821;29;20054;-79
2023/07/10 11:42:54;;;;;;;10.10;2.88;;;;;;;;;;4909037;29;20504;-80
2023/07/10 11:45:37;;;;;;;9.07;2.53;;;;;;;;;;4888977;29;20051;-79
2023/07/10 11:48:03;;;;;;;8.35;2.28;;;;;;;;;;4872999;29;20103;-81
2023/07/10 11:50:30;;;;;;;15.13;3.15;;;;;;;;;;4890999;29;20060;-80
2023/07/10 11:53:19;;;;;;;9.77;2.40;;;;;;;;;;4880359;29;20051;-80
2023/07/10 11:55:59;;;;;;;10.52;3.05;;;;;;;;;;4888369;29;20131;-79
2023/07/10 11:58:29;;;;;;;13.23;2.70;;;;;;;;;;4890231;29;20055;-79
2023/07/10 12:01:04;;;;;;;8.38;2.85;;;;;;;;;;4908025;29;20048;-80
2023/07/10 12:03:34;;;;;;;9.30;2.78;;;;;;;;;;4891445;29;20078;-78
2023/07/10 12:06:00;;;;;;;13.00;3.03;;;;;;;;;;4880856;29;20119;-79
2023/07/10 12:08:29;;;;;;;9.35;2.20;;;;;;;;;;4893883;29;20039;-80
2023/07/10 12:10:55;;;;;;;14.70;2.78;;;;;;;;;;4890651;29;20901;-80
2023/07/10 12:13:23;;;;;;;8.20;2.00;;;;;;;;;;4877774;29;21972;-79
2023/07/10 12:15:50;;;;;;;11.52;2.42;;;;;;;;;;4894138;29;20040;-80
2023/07/10 12:18:20;;;;;;;13.07;2.85;;;;;;;;;;4885521;29;20044;-84
2023/07/10 12:20:48;;;;;;;8.43;1.90;;;;;;;;;;4902566;29;20039;-84
2023/07/10 12:23:15;;;;;;;10.77;2.40;;;;;;;;;;4913771;29;20070;-83
2023/07/10 12:25:48;;;;;;;8.73;2.33;;;;;;;;;;4902088;29;20052;-84
2023/07/10 12:28:15;;;;;;;7.70;2.45;;;;;;;;;;4903297;29;20073;-84
2023/07/10 12:30:42;;;;;;;8.18;2.33;;;;;;;;;;4887871;29;20526;-84
2023/07/10 12:33:27;;;;;;;7.72;2.40;;;;;;;;;;4889537;29;20082;-84
2023/07/10 12:35:53;;;;;;;8.30;2.30;;;;;;;;;;4902893;29;20032;-84
2023/07/10 12:38:19;;;;;;;6.30;1.65;;;;;;;;;;4890948;29;20056;-84
2023/07/10 12:40:45;;;;;;;8.85;2.22;;;;;;;;;;4895010;29;20040;-85
2023/07/10 12:43:15;;;;;;;7.60;1.80;;;;;;;;;;4890587;29;20040;-84
2023/07/10 12:45:41;;;;;;;9.20;2.30;;;;;;;;;;4904254;29;20048;-84
2023/07/10 12:48:12;;;;;;;7.88;1.92;;;;;;;;;;4888086;29;20047;-84
2023/07/10 12:50:44;;;;;;;6.28;1.73;;;;;;;;;;4891398;29;20059;-83
2023/07/10 12:53:20;;;;;;;10.87;2.00;;;;;;;;;;4887549;29;20070;-84
2023/07/10 12:55:48;;;;;;;7.53;2.20;;;;;;;;;;4896761;29;20492;-84
2023/07/10 12:58:15;;;;;;;6.13;1.90;;;;;;;;;;4900582;29;20043;-84
2023/07/10 13:00:45;;;;;;;7.30;1.98;;;;;;;;;;4900833;29;20182;-84
2023/07/10 13:03:19;;;;;;;7.47;2.28;;;;;;;;;;4898694;29;20043;-83
2023/07/10 13:05:50;;;;;;;11.07;2.65;;;;;;;;;;4895626;29;20451;-83
2023/07/10 13:08:16;;;;;;;10.77;2.10;;;;;;;;;;4901611;29;20048;-84
2023/07/10 13:10:43;;;;;;;4.40;1.60;;;;;;;;;;4886107;29;20104;-84
2023/07/10 13:13:15;;;;;;;7.65;2.03;;;;;;;;;;4917862;29;20048;-84
2023/07/10 13:15:41;;;;;;;13.52;2.40;;;;;;;;;;4891421;29;20702;-83
2023/07/10 13:18:30;;;;;;;10.55;1.80;;;;;;;;;;4888375;29;20036;-84
2023/07/10 13:20:56;;;;;;;6.85;2.47;;;;;;;;;;4901076;29;20039;-84
2023/07/10 13:23:22;;;;;;;6.43;1.70;;;;;;;;;;4904113;29;20058;-83
2023/07/10 13:25:48;;;;;;;5.50;1.83;;;;;;;;;;4913826;29;20484;-83
2023/07/10 13:28:14;;;;;;;5.97;2.15;;;;;;;;;;4902601;29;20035;-83
2023/07/10 13:30:40;;;;;;;6.55;1.92;;;;;;;;;;4889088;29;20114;-84
2023/07/10 13:33:36;;;;;;;8.98;2.05;;;;;;;;;;4914199;29;20400;-84
2023/07/10 13:36:09;;;;;;;8.52;2.03;;;;;;;;;;4865404;29;20059;-83
2023/07/10 13:38:35;;;;;;;5.75;1.80;;;;;;;;;;4903929;29;20474;-84
2023/07/10 13:41:01;;;;;;;9.05;2.10;;;;;;;;;;4912388;29;20486;-83
2023/07/10 13:43:28;;;;;;;8.00;1.95;;;;;;;;;;4885379;29;20058;-83
2023/07/10 13:45:56;;;;;;;6.43;1.70;;;;;;;;;;4879696;29;20198;-85
2023/07/10 13:48:22;;;;;;;9.63;2.20;;;;;;;;;;4898047;29;20035;-85
2023/07/10 13:50:49;;;;;;;7.22;1.85;;;;;;;;;;4890749;29;20036;-84
2023/07/10 13:53:21;;;;;;;8.45;1.90;;;;;;;;;;4882988;29;20489;-85
2023/07/10 13:55:48;;;;;;;8.05;1.85;;;;;;;;;;4882519;29;20613;-84
2023/07/10 13:58:25;;;;;;;5.88;1.73;;;;;;;;;;4902814;29;20043;-84
2023/07/10 14:00:54;;;;;;;6.25;1.92;;;;;;;;;;4912224;29;20071;-84
2023/07/10 14:03:21;;;;;;;6.88;2.35;;;;;;;;;;4916609;29;20622;-84
2023/07/10 14:05:48;;;;;;;9.73;1.95;;;;;;;;;;4890994;29;20107;-84
2023/07/10 14:08:14;;;;;;;5.47;2.10;;;;;;;;;;4889194;29;20044;-84
2023/07/10 14:10:40;;;;;;;7.25;2.22;;;;;;;;;;4916706;29;20044;-84
2023/07/10 14:13:10;;;;;;;7.05;2.33;;;;;;;;;;4917875;29;20048;-83
2023/07/10 14:15:38;;;;;;;7.57;1.60;;;;;;;;;;4898605;29;20514;-84
2023/07/10 14:18:13;;;;;;;5.93;2.00;;;;;;;;;;4885558;29;20130;-84
2023/07/10 14:20:39;;;;;;;8.35;2.10;;;;;;;;;;4888184;29;20093;-83
2023/07/10 14:23:12;;;;;;;10.35;2.13;;;;;;;;;;4891026;29;20450;-84
2023/07/10 14:25:39;;;;;;;6.20;1.90;;;;;;;;;;4891926;29;20051;-84
2023/07/10 14:28:09;;;;;;;8.48;2.05;;;;;;;;;;4904457;29;20744;-84
2023/07/10 14:30:35;;;;;;;9.25;2.00;;;;;;;;;;4905778;29;20062;-83
2023/07/10 14:33:02;;;;;;;5.72;1.83;;;;;;;;;;4898928;29;20457;-84
2023/07/10 14:35:28;;;;;;;10.88;2.63;;;;;;;;;;4893149;29;20040;-84
2023/07/10 14:37:54;;;;;;;7.18;1.55;;;;;;;;;;4918930;29;20055;-84